sensor_id;sensor_type;location;lat;lon;timestamp;pressure;altitude;pressure_sealevel;temperature;humidity
29239;BME280;16267;48.194;11.546;2023-04-25T00:01:30;95358.34;;;8.71;70.54
29239;BME280;16267;48.194;11.546;2023-04-25T00:03:57;95350.31;;;8.71;70.25
29239;BME280;16267;48.194;11.546;2023-04-25T00:06:23;95347.63;;;8.71;70.35
29239;BME280;16267;48.194;11.546;2023-04-25T00:08:52;95343.44;;;8.70;70.72
29239;BME280;16267;48.194;11.546;2023-04-25T00:11:18;95352.22;;;8.71;70.55
29239;BME280;16267;48.194;11.546;2023-04-25T00:13:44;95361.41;;;8.70;71.51
29239;BME280;16267;48.194;11.546;2023-04-25T00:16:11;95361.81;;;8.68;72.54
29239;BME280;16267;48.194;11.546;2023-04-25T00:18:41;95360.69;;;8.66;71.93
29239;BME280;16267;48.194;11.546;2023-04-25T00:21:07;95361.44;;;8.66;72.00
29239;BME280;16267;48.194;11.546;2023-04-25T00:23:33;95362.63;;;8.65;72.25
29239;BME280;16267;48.194;11.546;2023-04-25T00:26:01;95366.41;;;8.68;72.29
29239;BME280;16267;48.194;11.546;2023-04-25T00:28:26;95359.94;;;8.65;72.50
29239;BME280;16267;48.194;11.546;2023-04-25T00:30:52;95361.81;;;8.68;72.13
29239;BME280;16267;48.194;11.546;2023-04-25T00:33:18;95364.50;;;8.68;71.89
29239;BME280;16267;48.194;11.546;2023-04-25T00:35:43;95368.66;;;8.69;72.14
29239;BME280;16267;48.194;11.546;2023-04-25T00:38:09;95364.84;;;8.70;71.71
29239;BME280;16267;48.194;11.546;2023-04-25T00:40:35;95361.41;;;8.70;71.62
29239;BME280;16267;48.194;11.546;2023-04-25T00:43:01;95350.31;;;8.71;71.45
29239;BME280;16267;48.194;11.546;2023-04-25T00:45:28;95357.97;;;8.69;71.16
29239;BME280;16267;48.194;11.546;2023-04-25T00:47:55;95348.03;;;8.70;71.65
29239;BME280;16267;48.194;11.546;2023-04-25T00:50:21;95349.19;;;8.69;70.72
29239;BME280;16267;48.194;11.546;2023-04-25T00:52:47;95351.13;;;8.68;70.74
29239;BME280;16267;48.194;11.546;2023-04-25T00:55:13;95345.00;;;8.68;70.78
29239;BME280;16267;48.194;11.546;2023-04-25T00:57:40;95343.91;;;8.65;70.90
29239;BME280;16267;48.194;11.546;2023-04-25T01:00:07;95345.81;;;8.65;70.46
29239;BME280;16267;48.194;11.546;2023-04-25T01:02:35;95338.94;;;8.64;70.28
29239;BME280;16267;48.194;11.546;2023-04-25T01:05:01;95338.19;;;8.63;69.89
29239;BME280;16267;48.194;11.546;2023-04-25T01:07:27;95340.09;;;8.63;70.32
29239;BME280;16267;48.194;11.546;2023-04-25T01:09:53;95342.06;;;8.59;69.97
29239;BME280;16267;48.194;11.546;2023-04-25T01:12:19;95347.81;;;8.57;70.41
29239;BME280;16267;48.194;11.546;2023-04-25T01:14:46;95352.81;;;8.55;71.39
29239;BME280;16267;48.194;11.546;2023-04-25T01:17:12;95345.59;;;8.52;71.20
29239;BME280;16267;48.194;11.546;2023-04-25T01:19:39;95339.13;;;8.49;71.54
29239;BME280;16267;48.194;11.546;2023-04-25T01:22:05;95340.69;;;8.47;71.33
29239;BME280;16267;48.194;11.546;2023-04-25T01:24:34;95336.50;;;8.46;71.29
29239;BME280;16267;48.194;11.546;2023-04-25T01:27:00;95336.88;;;8.44;70.83
29239;BME280;16267;48.194;11.546;2023-04-25T01:29:28;95335.38;;;8.43;71.05
29239;BME280;16267;48.194;11.546;2023-04-25T01:31:54;95335.78;;;8.42;71.24
29239;BME280;16267;48.194;11.546;2023-04-25T01:34:20;95333.53;;;8.40;71.28
29239;BME280;16267;48.194;11.546;2023-04-25T01:36:50;95327.03;;;8.38;71.18
29239;BME280;16267;48.194;11.546;2023-04-25T01:39:17;95328.59;;;8.35;71.25
29239;BME280;16267;48.194;11.546;2023-04-25T01:41:45;95322.88;;;8.33;71.51
29239;BME280;16267;48.194;11.546;2023-04-25T01:44:11;95333.19;;;8.31;71.16
29239;BME280;16267;48.194;11.546;2023-04-25T01:46:37;95327.50;;;8.29;71.03
29239;BME280;16267;48.194;11.546;2023-04-25T01:49:03;95327.53;;;8.25;71.29
29239;BME280;16267;48.194;11.546;2023-04-25T01:51:29;95338.66;;;8.24;71.55
29239;BME280;16267;48.194;11.546;2023-04-25T01:53:56;95329.50;;;8.21;71.90
29239;BME280;16267;48.194;11.546;2023-04-25T01:56:22;95322.28;;;8.18;71.64
29239;BME280;16267;48.194;11.546;2023-04-25T01:58:48;95329.19;;;8.16;71.84
29239;BME280;16267;48.194;11.546;2023-04-25T02:01:14;95329.59;;;8.14;71.82
29239;BME280;16267;48.194;11.546;2023-04-25T02:03:40;95333.41;;;8.13;72.03
29239;BME280;16267;48.194;11.546;2023-04-25T02:06:06;95329.63;;;8.11;71.44
29239;BME280;16267;48.194;11.546;2023-04-25T02:08:32;95327.34;;;8.09;72.14
29239;BME280;16267;48.194;11.546;2023-04-25T02:13:25;95323.59;;;8.07;71.51
29239;BME280;16267;48.194;11.546;2023-04-25T02:15:51;95315.19;;;8.04;71.33
29239;BME280;16267;48.194;11.546;2023-04-25T02:18:17;95322.84;;;8.02;71.82
29239;BME280;16267;48.194;11.546;2023-04-25T02:20:43;95334.34;;;7.99;72.88
29239;BME280;16267;48.194;11.546;2023-04-25T02:23:09;95326.72;;;7.98;72.41
29239;BME280;16267;48.194;11.546;2023-04-25T02:25:35;95333.22;;;7.97;72.32
29239;BME280;16267;48.194;11.546;2023-04-25T02:28:01;95320.28;;;7.95;72.99
29239;BME280;16267;48.194;11.546;2023-04-25T02:30:27;95318.72;;;7.94;72.72
29239;BME280;16267;48.194;11.546;2023-04-25T02:32:52;95324.09;;;7.94;73.13
29239;BME280;16267;48.194;11.546;2023-04-25T02:35:18;95315.31;;;7.94;73.19
29239;BME280;16267;48.194;11.546;2023-04-25T02:37:44;95319.50;;;7.95;73.08
29239;BME280;16267;48.194;11.546;2023-04-25T02:40:10;95311.88;;;7.93;73.32
29239;BME280;16267;48.194;11.546;2023-04-25T02:42:36;95314.16;;;7.95;72.63
29239;BME280;16267;48.194;11.546;2023-04-25T02:45:02;95311.47;;;7.95;73.01
29239;BME280;16267;48.194;11.546;2023-04-25T02:47:29;95322.16;;;7.95;72.93
29239;BME280;16267;48.194;11.546;2023-04-25T02:49:55;95315.69;;;7.92;73.39
29239;BME280;16267;48.194;11.546;2023-04-25T02:52:20;95313.81;;;7.93;73.23
29239;BME280;16267;48.194;11.546;2023-04-25T02:54:46;95319.91;;;7.93;73.96
29239;BME280;16267;48.194;11.546;2023-04-25T02:57:12;95317.22;;;7.93;73.68
29239;BME280;16267;48.194;11.546;2023-04-25T02:59:38;95313.06;;;7.89;73.33
29239;BME280;16267;48.194;11.546;2023-04-25T03:02:04;95315.00;;;7.88;73.78
29239;BME280;16267;48.194;11.546;2023-04-25T03:04:30;95312.69;;;7.87;74.22
29239;BME280;16267;48.194;11.546;2023-04-25T03:06:55;95313.50;;;7.83;74.35
29239;BME280;16267;48.194;11.546;2023-04-25T03:09:21;95312.00;;;7.82;74.62
29239;BME280;16267;48.194;11.546;2023-04-25T03:11:47;95312.38;;;7.85;74.95
29239;BME280;16267;48.194;11.546;2023-04-25T03:14:13;95310.13;;;7.79;75.19
29239;BME280;16267;48.194;11.546;2023-04-25T03:16:39;95313.28;;;7.71;75.95
29239;BME280;16267;48.194;11.546;2023-04-25T03:19:05;95309.06;;;7.70;76.75
29239;BME280;16267;48.194;11.546;2023-04-25T03:21:32;95301.78;;;7.74;77.19
29239;BME280;16267;48.194;11.546;2023-04-25T03:24:00;95290.66;;;7.79;77.03
29239;BME280;16267;48.194;11.546;2023-04-25T03:26:27;95284.53;;;7.82;77.28
29239;BME280;16267;48.194;11.546;2023-04-25T03:28:53;95286.09;;;7.79;77.02
29239;BME280;16267;48.194;11.546;2023-04-25T03:31:19;95297.13;;;7.81;77.59
29239;BME280;16267;48.194;11.546;2023-04-25T03:33:45;95302.81;;;7.83;77.27
29239;BME280;16267;48.194;11.546;2023-04-25T03:36:10;95303.22;;;7.82;77.75
29239;BME280;16267;48.194;11.546;2023-04-25T03:38:36;95295.69;;;7.73;77.61
29239;BME280;16267;48.194;11.546;2023-04-25T03:41:02;95297.16;;;7.78;77.93
29239;BME280;16267;48.194;11.546;2023-04-25T03:43:28;95297.59;;;7.73;77.06
29239;BME280;16267;48.194;11.546;2023-04-25T03:45:54;95295.72;;;7.70;76.25
29239;BME280;16267;48.194;11.546;2023-04-25T03:48:20;95298.06;;;7.64;77.03
29239;BME280;16267;48.194;11.546;2023-04-25T03:50:50;95284.69;;;7.68;76.67
29239;BME280;16267;48.194;11.546;2023-04-25T03:53:16;95288.59;;;7.59;76.03
29239;BME280;16267;48.194;11.546;2023-04-25T03:55:41;95295.81;;;7.63;76.61
29239;BME280;16267;48.194;11.546;2023-04-25T03:58:07;95288.28;;;7.50;76.61
29239;BME280;16267;48.194;11.546;2023-04-25T04:00:35;95294.69;;;7.56;77.17
29239;BME280;16267;48.194;11.546;2023-04-25T04:03:01;95290.84;;;7.61;77.49
29239;BME280;16267;48.194;11.546;2023-04-25T04:05:27;95294.69;;;7.56;76.83
29239;BME280;16267;48.194;11.546;2023-04-25T04:07:53;95294.78;;;7.49;77.01
29239;BME280;16267;48.194;11.546;2023-04-25T04:10:19;95300.44;;;7.55;76.97
29239;BME280;16267;48.194;11.546;2023-04-25T04:12:45;95290.22;;;7.46;76.93
29239;BME280;16267;48.194;11.546;2023-04-25T04:15:11;95290.19;;;7.50;77.43
29239;BME280;16267;48.194;11.546;2023-04-25T04:17:37;95294.72;;;7.53;77.35
29239;BME280;16267;48.194;11.546;2023-04-25T04:20:04;95293.22;;;7.52;76.58
29239;BME280;16267;48.194;11.546;2023-04-25T04:22:31;95290.16;;;7.53;77.20
29239;BME280;16267;48.194;11.546;2023-04-25T04:24:57;95297.03;;;7.54;77.59
29239;BME280;16267;48.194;11.546;2023-04-25T04:27:23;95294.72;;;7.53;77.25
29239;BME280;16267;48.194;11.546;2023-04-25T04:29:49;95298.56;;;7.52;77.71
29239;BME280;16267;48.194;11.546;2023-04-25T04:32:17;95293.69;;;7.43;77.38
29239;BME280;16267;48.194;11.546;2023-04-25T04:34:43;95301.63;;;7.50;77.71
29239;BME280;16267;48.194;11.546;2023-04-25T04:37:12;95297.44;;;7.49;77.57
29239;BME280;16267;48.194;11.546;2023-04-25T04:39:38;95300.88;;;7.50;77.77
29239;BME280;16267;48.194;11.546;2023-04-25T04:42:04;95306.56;;;7.52;77.26
29239;BME280;16267;48.194;11.546;2023-04-25T04:44:30;95302.03;;;7.45;77.90
29239;BME280;16267;48.194;11.546;2023-04-25T04:46:59;95308.91;;;7.46;78.11
29239;BME280;16267;48.194;11.546;2023-04-25T04:49:25;95302.84;;;7.42;79.25
29239;BME280;16267;48.194;11.546;2023-04-25T04:51:51;95306.63;;;7.45;78.96
29239;BME280;16267;48.194;11.546;2023-04-25T04:54:17;95313.56;;;7.38;78.61
29239;BME280;16267;48.194;11.546;2023-04-25T04:56:43;95311.59;;;7.43;79.50
29239;BME280;16267;48.194;11.546;2023-04-25T04:59:09;95308.91;;;7.46;79.37
29239;BME280;16267;48.194;11.546;2023-04-25T05:01:35;95295.53;;;7.50;79.41
29239;BME280;16267;48.194;11.546;2023-04-25T05:04:03;95293.97;;;7.52;79.62
29239;BME280;16267;48.194;11.546;2023-04-25T05:06:30;95286.41;;;7.47;79.99
29239;BME280;16267;48.194;11.546;2023-04-25T05:08:57;95290.59;;;7.48;79.58
29239;BME280;16267;48.194;11.546;2023-04-25T05:11:24;95291.06;;;7.36;79.83
29239;BME280;16267;48.194;11.546;2023-04-25T05:13:52;95292.91;;;7.43;80.52
29239;BME280;16267;48.194;11.546;2023-04-25T05:16:18;95290.66;;;7.41;80.79
29239;BME280;16267;48.194;11.546;2023-04-25T05:18:44;95296.72;;;7.45;81.26
29239;BME280;16267;48.194;11.546;2023-04-25T05:21:10;95298.25;;;7.46;81.36
29239;BME280;16267;48.194;11.546;2023-04-25T05:23:36;95295.53;;;7.50;81.43
29239;BME280;16267;48.194;11.546;2023-04-25T05:26:01;95290.94;;;7.50;80.99
29239;BME280;16267;48.194;11.546;2023-04-25T05:28:27;95293.28;;;7.45;82.07
29239;BME280;16267;48.194;11.546;2023-04-25T05:30:53;95295.56;;;7.46;83.17
29239;BME280;16267;48.194;11.546;2023-04-25T05:33:19;95298.63;;;7.45;83.75
29239;BME280;16267;48.194;11.546;2023-04-25T05:35:46;95301.72;;;7.40;84.68
29239;BME280;16267;48.194;11.546;2023-04-25T05:38:11;95299.88;;;7.33;85.37
29239;BME280;16267;48.194;11.546;2023-04-25T05:40:38;95291.84;;;7.36;86.01
29239;BME280;16267;48.194;11.546;2023-04-25T05:43:03;95298.66;;;7.41;86.46
29239;BME280;16267;48.194;11.546;2023-04-25T05:45:29;95297.50;;;7.42;86.37
29239;BME280;16267;48.194;11.546;2023-04-25T05:47:55;95296.28;;;7.50;86.65
29239;BME280;16267;48.194;11.546;2023-04-25T05:50:21;95300.06;;;7.53;86.67
29239;BME280;16267;48.194;11.546;2023-04-25T05:52:47;95306.16;;;7.57;85.73
29239;BME280;16267;48.194;11.546;2023-04-25T05:55:12;95308.78;;;7.60;86.32
29239;BME280;16267;48.194;11.546;2023-04-25T05:57:39;95311.06;;;7.62;86.26
29239;BME280;16267;48.194;11.546;2023-04-25T06:00:08;95305.78;;;7.55;86.53
29239;BME280;16267;48.194;11.546;2023-04-25T06:02:35;95316.84;;;7.57;86.38
29239;BME280;16267;48.194;11.546;2023-04-25T06:05:04;95325.69;;;7.47;86.93
29239;BME280;16267;48.194;11.546;2023-04-25T06:07:30;95314.56;;;7.55;87.45
29239;BME280;16267;48.194;11.546;2023-04-25T06:09:56;95317.97;;;7.59;87.39
29239;BME280;16267;48.194;11.546;2023-04-25T06:12:22;95323.41;;;7.45;86.94
29239;BME280;16267;48.194;11.546;2023-04-25T06:14:51;95319.88;;;7.55;87.77
29239;BME280;16267;48.194;11.546;2023-04-25T06:17:17;95324.06;;;7.60;87.82
29239;BME280;16267;48.194;11.546;2023-04-25T06:19:42;95308.34;;;7.66;86.84
29239;BME280;16267;48.194;11.546;2023-04-25T06:22:08;95305.34;;;7.60;85.58
29239;BME280;16267;48.194;11.546;2023-04-25T06:24:34;95294.25;;;7.62;86.02
29239;BME280;16267;48.194;11.546;2023-04-25T06:27:01;95301.94;;;7.59;85.73
29239;BME280;16267;48.194;11.546;2023-04-25T06:29:27;95303.00;;;7.66;86.12
29239;BME280;16267;48.194;11.546;2023-04-25T06:31:53;95300.72;;;7.64;86.17
29239;BME280;16267;48.194;11.546;2023-04-25T06:34:19;95301.59;;;7.54;85.85
29239;BME280;16267;48.194;11.546;2023-04-25T06:36:45;95314.16;;;7.57;86.47
29239;BME280;16267;48.194;11.546;2023-04-25T06:39:13;95303.63;;;7.39;87.55
29239;BME280;16267;48.194;11.546;2023-04-25T06:41:39;95310.00;;;7.52;87.91
29239;BME280;16267;48.194;11.546;2023-04-25T06:44:05;95317.13;;;7.66;88.16
29239;BME280;16267;48.194;11.546;2023-04-25T06:46:31;95317.63;;;7.92;88.87
29239;BME280;16267;48.194;11.546;2023-04-25T06:48:57;95310.56;;;8.09;88.98
29239;BME280;16267;48.194;11.546;2023-04-25T06:51:22;95305.00;;;8.26;89.17
29239;BME280;16267;48.194;11.546;2023-04-25T06:53:51;95302.94;;;8.41;88.36
29239;BME280;16267;48.194;11.546;2023-04-25T06:56:17;95307.44;;;8.48;86.68
29239;BME280;16267;48.194;11.546;2023-04-25T06:58:43;95303.59;;;8.49;87.02
29239;BME280;16267;48.194;11.546;2023-04-25T07:01:08;95302.50;;;8.46;86.11
29239;BME280;16267;48.194;11.546;2023-04-25T07:03:34;95302.50;;;8.46;86.08
29239;BME280;16267;48.194;11.546;2023-04-25T07:06:00;95301.63;;;8.53;86.18
29239;BME280;16267;48.194;11.546;2023-04-25T07:08:29;95307.34;;;8.55;84.34
29239;BME280;16267;48.194;11.546;2023-04-25T07:10:55;95311.88;;;8.58;84.25
29239;BME280;16267;48.194;11.546;2023-04-25T07:13:21;95308.81;;;8.60;83.77
29239;BME280;16267;48.194;11.546;2023-04-25T07:15:47;95303.81;;;8.62;83.69
29239;BME280;16267;48.194;11.546;2023-04-25T07:18:19;95304.66;;;8.55;82.85
29239;BME280;16267;48.194;11.546;2023-04-25T07:20:44;95300.06;;;8.56;84.18
29239;BME280;16267;48.194;11.546;2023-04-25T07:23:10;95296.13;;;8.64;85.11
29239;BME280;16267;48.194;11.546;2023-04-25T07:25:37;95301.91;;;8.62;84.07
29239;BME280;16267;48.194;11.546;2023-04-25T07:28:03;95289.16;;;8.70;84.10
29239;BME280;16267;48.194;11.546;2023-04-25T07:30:30;95292.19;;;8.72;82.48
29239;BME280;16267;48.194;11.546;2023-04-25T07:32:56;95289.88;;;8.74;81.81
29239;BME280;16267;48.194;11.546;2023-04-25T07:35:22;95284.78;;;8.83;81.95
29239;BME280;16267;48.194;11.546;2023-04-25T07:37:48;95291.47;;;8.95;82.44
29239;BME280;16267;48.194;11.546;2023-04-25T07:40:13;95287.50;;;9.07;83.05
29239;BME280;16267;48.194;11.546;2023-04-25T07:42:42;95283.25;;;9.09;79.40
29239;BME280;16267;48.194;11.546;2023-04-25T07:45:09;95284.56;;;9.21;81.22
29239;BME280;16267;48.194;11.546;2023-04-25T07:47:35;95285.63;;;9.27;78.69
29239;BME280;16267;48.194;11.546;2023-04-25T07:50:03;95289.63;;;9.39;78.44
29239;BME280;16267;48.194;11.546;2023-04-25T07:52:28;95279.44;;;9.54;77.98
29239;BME280;16267;48.194;11.546;2023-04-25T07:54:58;95275.88;;;9.60;75.69
29239;BME280;16267;48.194;11.546;2023-04-25T07:57:24;95280.91;;;9.78;76.92
29239;BME280;16267;48.194;11.546;2023-04-25T07:59:50;95282.78;;;10.01;77.88
29239;BME280;16267;48.194;11.546;2023-04-25T08:02:21;95290.53;;;10.16;73.75
29239;BME280;16267;48.194;11.546;2023-04-25T08:04:47;95281.38;;;10.13;72.24
29239;BME280;16267;48.194;11.546;2023-04-25T08:07:15;95274.91;;;10.11;70.39
29239;BME280;16267;48.194;11.546;2023-04-25T08:09:40;95275.19;;;10.16;69.88
29239;BME280;16267;48.194;11.546;2023-04-25T08:12:06;95272.03;;;10.41;71.39
29239;BME280;16267;48.194;11.546;2023-04-25T08:14:32;95278.69;;;10.33;68.42
29239;BME280;16267;48.194;11.546;2023-04-25T08:17:03;95273.47;;;10.46;70.93
29239;BME280;16267;48.194;11.546;2023-04-25T08:19:30;95278.53;;;10.60;69.73
29239;BME280;16267;48.194;11.546;2023-04-25T08:21:56;95282.75;;;10.94;72.33
29239;BME280;16267;48.194;11.546;2023-04-25T08:24:23;95284.59;;;10.97;69.06
29239;BME280;16267;48.194;11.546;2023-04-25T08:26:49;95281.91;;;11.13;70.41
29239;BME280;16267;48.194;11.546;2023-04-25T08:29:15;95278.72;;;11.19;68.92
29239;BME280;16267;48.194;11.546;2023-04-25T08:31:41;95281.00;;;11.04;66.60
29239;BME280;16267;48.194;11.546;2023-04-25T08:34:06;95285.59;;;10.70;63.79
29239;BME280;16267;48.194;11.546;2023-04-25T08:36:32;95288.09;;;10.78;61.82
29239;BME280;16267;48.194;11.546;2023-04-25T08:38:58;95291.28;;;10.89;62.76
29239;BME280;16267;48.194;11.546;2023-04-25T08:41:24;95284.44;;;11.04;62.96
29239;BME280;16267;48.194;11.546;2023-04-25T08:43:51;95291.50;;;11.31;64.25
29239;BME280;16267;48.194;11.546;2023-04-25T08:46:19;95294.91;;;11.48;62.89
29239;BME280;16267;48.194;11.546;2023-04-25T08:48:46;95290.03;;;11.59;61.90
29239;BME280;16267;48.194;11.546;2023-04-25T08:51:21;95291.50;;;11.76;62.00
29239;BME280;16267;48.194;11.546;2023-04-25T08:53:51;95287.72;;;11.74;59.80
29239;BME280;16267;48.194;11.546;2023-04-25T08:56:18;95292.00;;;11.71;59.33
29239;BME280;16267;48.194;11.546;2023-04-25T08:58:48;95287.34;;;11.59;56.06
29239;BME280;16267;48.194;11.546;2023-04-25T09:01:15;95292.44;;;11.86;58.11
29239;BME280;16267;48.194;11.546;2023-04-25T09:03:44;95288.38;;;11.78;57.62
29239;BME280;16267;48.194;11.546;2023-04-25T09:06:11;95288.41;;;11.61;55.81
29239;BME280;16267;48.194;11.546;2023-04-25T09:08:37;95286.03;;;11.64;57.01
29239;BME280;16267;48.194;11.546;2023-04-25T09:11:06;95294.03;;;11.67;56.58
29239;BME280;16267;48.194;11.546;2023-04-25T09:13:32;95294.09;;;11.64;56.01
29239;BME280;16267;48.194;11.546;2023-04-25T09:15:58;95289.59;;;11.60;56.05
29239;BME280;16267;48.194;11.546;2023-04-25T09:18:34;95295.31;;;11.63;56.39
29239;BME280;16267;48.194;11.546;2023-04-25T09:21:10;95292.69;;;11.75;58.01
29239;BME280;16267;48.194;11.546;2023-04-25T09:23:48;95295.44;;;11.88;55.14
29239;BME280;16267;48.194;11.546;2023-04-25T09:26:20;95293.91;;;12.16;56.72
29239;BME280;16267;48.194;11.546;2023-04-25T09:28:46;95282.91;;;12.11;55.80
29239;BME280;16267;48.194;11.546;2023-04-25T09:31:22;95289.59;;;12.06;53.80
29239;BME280;16267;48.194;11.546;2023-04-25T09:33:49;95290.78;;;12.18;53.26
29239;BME280;16267;48.194;11.546;2023-04-25T09:36:15;95289.97;;;12.34;52.91
29239;BME280;16267;48.194;11.546;2023-04-25T09:38:46;95294.84;;;12.52;53.12
29239;BME280;16267;48.194;11.546;2023-04-25T09:41:12;95295.28;;;12.50;52.47
29239;BME280;16267;48.194;11.546;2023-04-25T09:43:39;95298.91;;;12.43;51.55
29239;BME280;16267;48.194;11.546;2023-04-25T09:46:09;95291.59;;;12.31;50.82
29239;BME280;16267;48.194;11.546;2023-04-25T09:48:37;95294.63;;;12.59;51.21
29239;BME280;16267;48.194;11.546;2023-04-25T09:51:15;95296.47;;;12.87;53.29
29239;BME280;16267;48.194;11.546;2023-04-25T09:53:46;95297.53;;;13.15;52.99
29239;BME280;16267;48.194;11.546;2023-04-25T09:56:12;95290.41;;;13.34;50.74
29239;BME280;16267;48.194;11.546;2023-04-25T09:58:42;95288.66;;;13.41;51.09
29239;BME280;16267;48.194;11.546;2023-04-25T10:01:10;95287.19;;;13.27;48.24
29239;BME280;16267;48.194;11.546;2023-04-25T10:03:38;95291.16;;;13.35;49.20
29239;BME280;16267;48.194;11.546;2023-04-25T10:06:14;95289.78;;;13.05;47.72
29239;BME280;16267;48.194;11.546;2023-04-25T10:08:44;95295.38;;;13.10;49.62
29239;BME280;16267;48.194;11.546;2023-04-25T10:11:10;95286.66;;;13.06;48.02
29239;BME280;16267;48.194;11.546;2023-04-25T10:13:36;95290.53;;;13.31;50.44
29239;BME280;16267;48.194;11.546;2023-04-25T10:16:04;95285.34;;;13.36;48.89
29239;BME280;16267;48.194;11.546;2023-04-25T10:18:31;95285.88;;;13.44;49.58
29239;BME280;16267;48.194;11.546;2023-04-25T10:21:03;95286.84;;;13.37;48.49
29239;BME280;16267;48.194;11.546;2023-04-25T10:23:30;95283.06;;;13.35;48.23
29239;BME280;16267;48.194;11.546;2023-04-25T10:25:57;95284.16;;;13.37;49.12
29239;BME280;16267;48.194;11.546;2023-04-25T10:28:24;95283.94;;;13.32;48.71
29239;BME280;16267;48.194;11.546;2023-04-25T10:31:03;95284.59;;;13.36;50.28
29239;BME280;16267;48.194;11.546;2023-04-25T10:33:48;95288.91;;;13.33;49.16
29239;BME280;16267;48.194;11.546;2023-04-25T10:36:21;95303.69;;;13.29;49.10
29239;BME280;16267;48.194;11.546;2023-04-25T10:38:49;95302.25;;;13.24;50.03
29239;BME280;16267;48.194;11.546;2023-04-25T10:41:19;95312.53;;;13.04;50.52
29239;BME280;16267;48.194;11.546;2023-04-25T10:43:46;95321.56;;;12.84;50.97
29239;BME280;16267;48.194;11.546;2023-04-25T10:48:51;95332.00;;;12.57;51.51
29239;BME280;16267;48.194;11.546;2023-04-25T10:51:29;95337.09;;;12.38;54.42
29239;BME280;16267;48.194;11.546;2023-04-25T11:01:46;95369.47;;;11.27;62.87
29239;BME280;16267;48.194;11.546;2023-04-25T11:04:33;95374.44;;;11.29;64.55
29239;BME280;16267;48.194;11.546;2023-04-25T11:09:56;95389.94;;;11.21;64.99
29239;BME280;16267;48.194;11.546;2023-04-25T11:12:24;95383.22;;;11.13;64.93
29239;BME280;16267;48.194;11.546;2023-04-25T11:14:50;95379.94;;;11.05;66.92
29239;BME280;16267;48.194;11.546;2023-04-25T11:17:16;95380.88;;;11.15;67.42
29239;BME280;16267;48.194;11.546;2023-04-25T11:19:42;95376.84;;;11.07;68.43
29239;BME280;16267;48.194;11.546;2023-04-25T11:22:08;95387.84;;;11.12;68.58
29239;BME280;16267;48.194;11.546;2023-04-25T11:24:36;95388.81;;;11.02;68.73
29239;BME280;16267;48.194;11.546;2023-04-25T11:27:03;95390.88;;;10.78;67.76
29239;BME280;16267;48.194;11.546;2023-04-25T11:29:31;95396.84;;;10.86;67.79
29239;BME280;16267;48.194;11.546;2023-04-25T11:31:57;95396.97;;;10.99;68.64
29239;BME280;16267;48.194;11.546;2023-04-25T11:34:30;95397.03;;;10.95;68.61
29239;BME280;16267;48.194;11.546;2023-04-25T11:36:57;95400.00;;;11.01;69.50
29239;BME280;16267;48.194;11.546;2023-04-25T11:39:24;95399.91;;;11.04;69.79
29239;BME280;16267;48.194;11.546;2023-04-25T11:41:52;95408.63;;;11.08;69.05
29239;BME280;16267;48.194;11.546;2023-04-25T11:44:19;95404.13;;;11.22;69.77
29239;BME280;16267;48.194;11.546;2023-04-25T11:46:46;95397.00;;;11.31;70.24
29239;BME280;16267;48.194;11.546;2023-04-25T11:49:13;95400.34;;;11.35;67.26
29239;BME280;16267;48.194;11.546;2023-04-25T11:51:47;95412.38;;;11.47;68.07
29239;BME280;16267;48.194;11.546;2023-04-25T11:54:14;95416.34;;;11.43;68.02
29239;BME280;16267;48.194;11.546;2023-04-25T11:56:45;95426.56;;;11.31;66.87
29239;BME280;16267;48.194;11.546;2023-04-25T11:59:12;95452.94;;;10.60;68.37
29239;BME280;16267;48.194;11.546;2023-04-25T12:01:46;95443.94;;;10.51;69.11
29239;BME280;16267;48.194;11.546;2023-04-25T12:04:15;95451.16;;;10.34;71.40
29239;BME280;16267;48.194;11.546;2023-04-25T12:06:44;95454.47;;;9.94;74.04
29239;BME280;16267;48.194;11.546;2023-04-25T12:09:13;95457.97;;;10.15;75.41
29239;BME280;16267;48.194;11.546;2023-04-25T12:11:52;95453.34;;;10.15;75.12
29239;BME280;16267;48.194;11.546;2023-04-25T12:14:27;95454.91;;;9.89;76.97
29239;BME280;16267;48.194;11.546;2023-04-25T12:16:59;95452.38;;;9.82;78.78
29239;BME280;16267;48.194;11.546;2023-04-25T12:19:29;95454.84;;;9.69;79.27
29239;BME280;16267;48.194;11.546;2023-04-25T12:21:57;95451.69;;;9.51;78.81
29239;BME280;16267;48.194;11.546;2023-04-25T12:24:26;95445.88;;;9.56;78.13
29239;BME280;16267;48.194;11.546;2023-04-25T12:27:03;95448.56;;;9.29;80.16
29239;BME280;16267;48.194;11.546;2023-04-25T12:29:32;95444.03;;;9.26;80.71
29239;BME280;16267;48.194;11.546;2023-04-25T12:31:58;95441.44;;;9.19;80.75
29239;BME280;16267;48.194;11.546;2023-04-25T12:34:25;95440.78;;;9.11;82.98
29239;BME280;16267;48.194;11.546;2023-04-25T12:36:52;95438.50;;;9.09;82.84
29239;BME280;16267;48.194;11.546;2023-04-25T12:39:23;95447.47;;;9.26;83.10
29239;BME280;16267;48.194;11.546;2023-04-25T12:41:50;95450.38;;;9.35;84.13
29239;BME280;16267;48.194;11.546;2023-04-25T12:44:17;95445.25;;;9.45;84.35
29239;BME280;16267;48.194;11.546;2023-04-25T12:46:43;95457.66;;;9.35;83.57
29239;BME280;16267;48.194;11.546;2023-04-25T12:49:09;95461.00;;;9.43;84.45
29239;BME280;16267;48.194;11.546;2023-04-25T12:51:36;95460.84;;;9.53;84.60
29239;BME280;16267;48.194;11.546;2023-04-25T12:54:04;95474.88;;;9.61;84.22
29239;BME280;16267;48.194;11.546;2023-04-25T12:56:30;95473.75;;;9.62;83.32
29239;BME280;16267;48.194;11.546;2023-04-25T12:58:57;95472.88;;;9.42;80.32
29239;BME280;16267;48.194;11.546;2023-04-25T13:01:24;95482.31;;;9.50;81.40
29239;BME280;16267;48.194;11.546;2023-04-25T13:03:50;95478.34;;;9.34;81.24
29239;BME280;16267;48.194;11.546;2023-04-25T13:06:17;95486.97;;;9.46;82.50
29239;BME280;16267;48.194;11.546;2023-04-25T13:08:43;95483.06;;;9.50;82.06
29239;BME280;16267;48.194;11.546;2023-04-25T13:11:09;95499.16;;;9.23;81.31
29239;BME280;16267;48.194;11.546;2023-04-25T13:13:35;95491.44;;;9.25;82.06